sensor_id;sensor_type;location;lat;lon;timestamp;P1;durP1;ratioP1;P2;durP2;ratioP2
22070;SDS011;11200;51.488;6.668;2022-07-22T00:00:33;3.47;;;1.77;;
22070;SDS011;11200;51.488;6.668;2022-07-22T00:02:58;4.57;;;1.92;;
22070;SDS011;11200;51.488;6.668;2022-07-22T00:05:24;3.95;;;1.90;;
22070;SDS011;11200;51.488;6.668;2022-07-22T00:07:49;4.00;;;2.00;;
22070;SDS011;11200;51.488;6.668;2022-07-22T00:10:15;3.13;;;1.80;;
22070;SDS011;11200;51.488;6.668;2022-07-22T00:12:40;2.10;;;1.67;;
22070;SDS011;11200;51.488;6.668;2022-07-22T00:15:07;3.38;;;1.70;;
22070;SDS011;11200;51.488;6.668;2022-07-22T00:17:33;2.70;;;1.70;;
22070;SDS011;11200;51.488;6.668;2022-07-22T00:20:01;4.22;;;1.92;;
22070;SDS011;11200;51.488;6.668;2022-07-22T00:22:27;7.05;;;2.00;;
22070;SDS011;11200;51.488;6.668;2022-07-22T00:24:53;3.92;;;2.35;;
22070;SDS011;11200;51.488;6.668;2022-07-22T00:27:18;4.53;;;1.80;;
22070;SDS011;11200;51.488;6.668;2022-07-22T00:29:44;3.60;;;2.10;;
22070;SDS011;11200;51.488;6.668;2022-07-22T00:32:09;3.33;;;1.83;;
22070;SDS011;11200;51.488;6.668;2022-07-22T00:34:35;5.65;;;2.17;;
22070;SDS011;11200;51.488;6.668;2022-07-22T00:37:00;3.78;;;2.08;;
22070;SDS011;11200;51.488;6.668;2022-07-22T00:39:26;4.25;;;2.10;;
22070;SDS011;11200;51.488;6.668;2022-07-22T00:41:52;2.83;;;1.80;;
22070;SDS011;11200;51.488;6.668;2022-07-22T00:44:17;3.72;;;1.90;;
22070;SDS011;11200;51.488;6.668;2022-07-22T00:46:43;3.78;;;2.05;;
22070;SDS011;11200;51.488;6.668;2022-07-22T00:49:08;3.65;;;2.00;;
22070;SDS011;11200;51.488;6.668;2022-07-22T00:51:34;3.70;;;1.92;;
22070;SDS011;11200;51.488;6.668;2022-07-22T00:54:02;3.92;;;2.00;;
22070;SDS011;11200;51.488;6.668;2022-07-22T00:56:29;3.50;;;1.75;;
22070;SDS011;11200;51.488;6.668;2022-07-22T00:58:56;3.17;;;2.00;;
22070;SDS011;11200;51.488;6.668;2022-07-22T01:01:23;5.53;;;1.88;;
22070;SDS011;11200;51.488;6.668;2022-07-22T01:03:49;3.08;;;1.90;;
22070;SDS011;11200;51.488;6.668;2022-07-22T01:06:14;3.30;;;1.60;;
22070;SDS011;11200;51.488;6.668;2022-07-22T01:08:40;4.45;;;2.00;;
22070;SDS011;11200;51.488;6.668;2022-07-22T01:11:13;2.85;;;1.90;;
22070;SDS011;11200;51.488;6.668;2022-07-22T01:13:41;3.65;;;2.05;;
22070;SDS011;11200;51.488;6.668;2022-07-22T01:16:08;2.38;;;1.70;;
22070;SDS011;11200;51.488;6.668;2022-07-22T01:18:34;3.20;;;1.60;;
22070;SDS011;11200;51.488;6.668;2022-07-22T01:21:01;3.72;;;2.00;;
22070;SDS011;11200;51.488;6.668;2022-07-22T01:23:27;2.13;;;1.50;;
22070;SDS011;11200;51.488;6.668;2022-07-22T01:25:53;2.50;;;1.85;;
22070;SDS011;11200;51.488;6.668;2022-07-22T01:28:18;2.50;;;1.63;;
22070;SDS011;11200;51.488;6.668;2022-07-22T01:30:44;1.73;;;1.45;;
22070;SDS011;11200;51.488;6.668;2022-07-22T01:33:10;1.98;;;1.60;;
22070;SDS011;11200;51.488;6.668;2022-07-22T01:35:36;3.28;;;1.70;;
22070;SDS011;11200;51.488;6.668;2022-07-22T01:38:01;2.78;;;1.70;;
22070;SDS011;11200;51.488;6.668;2022-07-22T01:40:27;2.60;;;1.90;;
22070;SDS011;11200;51.488;6.668;2022-07-22T01:42:53;2.90;;;1.70;;
22070;SDS011;11200;51.488;6.668;2022-07-22T01:45:19;2.15;;;1.80;;
22070;SDS011;11200;51.488;6.668;2022-07-22T01:47:44;4.88;;;1.63;;
22070;SDS011;11200;51.488;6.668;2022-07-22T01:50:10;2.17;;;1.45;;
22070;SDS011;11200;51.488;6.668;2022-07-22T01:52:37;2.25;;;1.70;;
22070;SDS011;11200;51.488;6.668;2022-07-22T01:55:05;2.78;;;1.60;;
22070;SDS011;11200;51.488;6.668;2022-07-22T01:57:31;3.30;;;1.85;;
22070;SDS011;11200;51.488;6.668;2022-07-22T01:59:57;2.83;;;1.73;;
22070;SDS011;11200;51.488;6.668;2022-07-22T02:02:23;1.60;;;1.50;;
22070;SDS011;11200;51.488;6.668;2022-07-22T02:04:48;2.17;;;1.60;;
22070;SDS011;11200;51.488;6.668;2022-07-22T02:07:14;2.03;;;1.70;;
22070;SDS011;11200;51.488;6.668;2022-07-22T02:09:39;2.05;;;1.40;;
22070;SDS011;11200;51.488;6.668;2022-07-22T02:12:05;3.35;;;1.90;;
22070;SDS011;11200;51.488;6.668;2022-07-22T02:14:31;2.58;;;1.63;;
22070;SDS011;11200;51.488;6.668;2022-07-22T02:16:57;3.28;;;1.58;;
22070;SDS011;11200;51.488;6.668;2022-07-22T02:19:22;2.42;;;1.70;;
22070;SDS011;11200;51.488;6.668;2022-07-22T02:21:48;3.10;;;1.70;;
22070;SDS011;11200;51.488;6.668;2022-07-22T02:24:13;5.18;;;1.83;;
22070;SDS011;11200;51.488;6.668;2022-07-22T02:26:39;2.50;;;1.52;;
22070;SDS011;11200;51.488;6.668;2022-07-22T02:29:05;3.60;;;1.70;;
22070;SDS011;11200;51.488;6.668;2022-07-22T02:31:31;2.53;;;1.65;;
22070;SDS011;11200;51.488;6.668;2022-07-22T02:33:57;3.47;;;1.60;;
22070;SDS011;11200;51.488;6.668;2022-07-22T02:36:22;3.30;;;1.70;;
22070;SDS011;11200;51.488;6.668;2022-07-22T02:38:48;3.28;;;1.80;;
22070;SDS011;11200;51.488;6.668;2022-07-22T02:41:13;2.53;;;1.70;;
22070;SDS011;11200;51.488;6.668;2022-07-22T02:43:39;2.55;;;1.60;;
22070;SDS011;11200;51.488;6.668;2022-07-22T02:46:05;2.67;;;1.55;;
22070;SDS011;11200;51.488;6.668;2022-07-22T02:48:30;1.67;;;1.58;;
22070;SDS011;11200;51.488;6.668;2022-07-22T02:50:56;2.65;;;1.45;;
22070;SDS011;11200;51.488;6.668;2022-07-22T02:53:22;3.03;;;1.55;;
22070;SDS011;11200;51.488;6.668;2022-07-22T02:55:47;1.52;;;1.40;;
22070;SDS011;11200;51.488;6.668;2022-07-22T02:58:13;3.33;;;1.60;;
22070;SDS011;11200;51.488;6.668;2022-07-22T03:00:39;2.28;;;1.52;;
22070;SDS011;11200;51.488;6.668;2022-07-22T03:03:04;2.28;;;1.40;;
22070;SDS011;11200;51.488;6.668;2022-07-22T03:05:30;2.90;;;1.60;;
22070;SDS011;11200;51.488;6.668;2022-07-22T03:07:55;3.33;;;1.40;;
22070;SDS011;11200;51.488;6.668;2022-07-22T03:10:21;2.25;;;1.40;;
22070;SDS011;11200;51.488;6.668;2022-07-22T03:12:47;1.50;;;1.40;;
22070;SDS011;11200;51.488;6.668;2022-07-22T03:15:12;2.15;;;1.40;;
22070;SDS011;11200;51.488;6.668;2022-07-22T03:17:38;2.47;;;1.40;;
22070;SDS011;11200;51.488;6.668;2022-07-22T03:20:05;2.95;;;1.42;;
22070;SDS011;11200;51.488;6.668;2022-07-22T03:22:32;2.58;;;1.63;;
22070;SDS011;11200;51.488;6.668;2022-07-22T03:24:59;3.33;;;1.70;;
22070;SDS011;11200;51.488;6.668;2022-07-22T03:27:25;2.55;;;1.52;;
22070;SDS011;11200;51.488;6.668;2022-07-22T03:29:51;2.15;;;1.35;;
22070;SDS011;11200;51.488;6.668;2022-07-22T03:32:16;2.78;;;1.38;;
22070;SDS011;11200;51.488;6.668;2022-07-22T03:34:42;4.85;;;1.98;;
22070;SDS011;11200;51.488;6.668;2022-07-22T03:37:08;3.03;;;1.40;;
22070;SDS011;11200;51.488;6.668;2022-07-22T03:39:34;2.05;;;1.40;;
22070;SDS011;11200;51.488;6.668;2022-07-22T03:41:59;2.83;;;1.60;;
22070;SDS011;11200;51.488;6.668;2022-07-22T03:44:25;3.17;;;1.27;;
22070;SDS011;11200;51.488;6.668;2022-07-22T03:46:51;2.70;;;1.30;;
22070;SDS011;11200;51.488;6.668;2022-07-22T03:49:16;2.45;;;1.20;;
22070;SDS011;11200;51.488;6.668;2022-07-22T03:51:42;3.13;;;1.30;;
22070;SDS011;11200;51.488;6.668;2022-07-22T03:54:08;3.05;;;1.40;;
22070;SDS011;11200;51.488;6.668;2022-07-22T03:56:33;1.50;;;1.20;;
22070;SDS011;11200;51.488;6.668;2022-07-22T03:58:59;2.08;;;1.40;;
22070;SDS011;11200;51.488;6.668;2022-07-22T04:01:24;1.58;;;1.35;;
22070;SDS011;11200;51.488;6.668;2022-07-22T04:03:50;2.53;;;1.33;;
22070;SDS011;11200;51.488;6.668;2022-07-22T04:06:16;1.88;;;1.25;;
22070;SDS011;11200;51.488;6.668;2022-07-22T04:08:42;3.28;;;1.35;;
22070;SDS011;11200;51.488;6.668;2022-07-22T04:11:08;2.30;;;1.33;;
22070;SDS011;11200;51.488;6.668;2022-07-22T04:13:33;1.92;;;1.30;;
22070;SDS011;11200;51.488;6.668;2022-07-22T04:15:59;3.28;;;1.33;;
22070;SDS011;11200;51.488;6.668;2022-07-22T04:18:25;2.88;;;1.45;;
22070;SDS011;11200;51.488;6.668;2022-07-22T04:20:50;1.52;;;1.27;;
22070;SDS011;11200;51.488;6.668;2022-07-22T04:23:16;2.78;;;1.45;;
22070;SDS011;11200;51.488;6.668;2022-07-22T04:25:42;2.03;;;1.08;;
22070;SDS011;11200;51.488;6.668;2022-07-22T04:28:07;2.85;;;1.40;;
22070;SDS011;11200;51.488;6.668;2022-07-22T04:30:33;3.42;;;1.48;;
22070;SDS011;11200;51.488;6.668;2022-07-22T04:32:59;2.20;;;1.48;;
22070;SDS011;11200;51.488;6.668;2022-07-22T04:35:24;3.63;;;1.30;;
22070;SDS011;11200;51.488;6.668;2022-07-22T04:37:50;3.08;;;1.50;;
22070;SDS011;11200;51.488;6.668;2022-07-22T04:40:16;2.33;;;1.23;;
22070;SDS011;11200;51.488;6.668;2022-07-22T04:42:42;1.63;;;1.30;;
22070;SDS011;11200;51.488;6.668;2022-07-22T04:45:07;2.65;;;1.30;;
22070;SDS011;11200;51.488;6.668;2022-07-22T04:47:33;2.97;;;1.40;;
22070;SDS011;11200;51.488;6.668;2022-07-22T04:49:59;2.90;;;1.23;;
22070;SDS011;11200;51.488;6.668;2022-07-22T04:52:25;1.92;;;1.10;;
22070;SDS011;11200;51.488;6.668;2022-07-22T04:54:50;1.73;;;1.20;;
22070;SDS011;11200;51.488;6.668;2022-07-22T04:57:16;2.05;;;1.40;;
22070;SDS011;11200;51.488;6.668;2022-07-22T04:59:42;2.33;;;1.40;;
22070;SDS011;11200;51.488;6.668;2022-07-22T05:02:07;2.20;;;1.20;;
22070;SDS011;11200;51.488;6.668;2022-07-22T05:04:33;1.83;;;1.20;;
22070;SDS011;11200;51.488;6.668;2022-07-22T05:06:59;3.33;;;1.30;;
22070;SDS011;11200;51.488;6.668;2022-07-22T05:09:25;2.20;;;1.38;;
22070;SDS011;11200;51.488;6.668;2022-07-22T05:11:50;1.60;;;1.20;;
22070;SDS011;11200;51.488;6.668;2022-07-22T05:14:16;1.88;;;1.30;;
22070;SDS011;11200;51.488;6.668;2022-07-22T05:16:42;1.30;;;1.05;;
22070;SDS011;11200;51.488;6.668;2022-07-22T05:19:07;2.72;;;1.40;;
22070;SDS011;11200;51.488;6.668;2022-07-22T05:21:33;1.60;;;1.30;;
22070;SDS011;11200;51.488;6.668;2022-07-22T05:23:58;2.00;;;1.23;;
22070;SDS011;11200;51.488;6.668;2022-07-22T05:26:24;3.13;;;1.40;;
22070;SDS011;11200;51.488;6.668;2022-07-22T05:28:50;2.47;;;1.50;;
22070;SDS011;11200;51.488;6.668;2022-07-22T05:31:15;2.22;;;1.30;;
22070;SDS011;11200;51.488;6.668;2022-07-22T05:33:41;1.63;;;1.15;;
22070;SDS011;11200;51.488;6.668;2022-07-22T05:36:07;2.15;;;1.38;;
22070;SDS011;11200;51.488;6.668;2022-07-22T05:38:34;3.13;;;1.38;;
22070;SDS011;11200;51.488;6.668;2022-07-22T05:41:00;2.28;;;1.20;;
22070;SDS011;11200;51.488;6.668;2022-07-22T05:43:26;3.17;;;1.60;;
22070;SDS011;11200;51.488;6.668;2022-07-22T05:45:52;1.90;;;1.30;;
22070;SDS011;11200;51.488;6.668;2022-07-22T05:48:18;2.17;;;1.30;;
22070;SDS011;11200;51.488;6.668;2022-07-22T05:50:44;2.83;;;1.30;;
22070;SDS011;11200;51.488;6.668;2022-07-22T05:53:09;2.45;;;1.30;;
22070;SDS011;11200;51.488;6.668;2022-07-22T05:55:35;2.00;;;1.10;;
22070;SDS011;11200;51.488;6.668;2022-07-22T05:58:01;1.67;;;1.40;;
22070;SDS011;11200;51.488;6.668;2022-07-22T06:00:27;2.70;;;1.33;;
22070;SDS011;11200;51.488;6.668;2022-07-22T06:02:52;1.58;;;1.30;;
22070;SDS011;11200;51.488;6.668;2022-07-22T06:05:18;2.33;;;1.67;;
22070;SDS011;11200;51.488;6.668;2022-07-22T06:07:44;1.50;;;1.13;;
22070;SDS011;11200;51.488;6.668;2022-07-22T06:10:09;1.75;;;1.27;;
22070;SDS011;11200;51.488;6.668;2022-07-22T06:12:35;3.65;;;1.40;;
22070;SDS011;11200;51.488;6.668;2022-07-22T06:15:00;1.77;;;1.30;;
22070;SDS011;11200;51.488;6.668;2022-07-22T06:17:26;2.33;;;1.30;;
22070;SDS011;11200;51.488;6.668;2022-07-22T06:19:52;2.30;;;1.30;;
22070;SDS011;11200;51.488;6.668;2022-07-22T06:22:17;1.80;;;1.23;;
22070;SDS011;11200;51.488;6.668;2022-07-22T06:24:43;1.60;;;1.20;;
22070;SDS011;11200;51.488;6.668;2022-07-22T06:27:09;1.73;;;1.40;;
22070;SDS011;11200;51.488;6.668;2022-07-22T06:29:35;2.22;;;1.48;;
22070;SDS011;11200;51.488;6.668;2022-07-22T06:32:01;2.45;;;1.20;;
22070;SDS011;11200;51.488;6.668;2022-07-22T06:34:26;2.35;;;1.30;;
22070;SDS011;11200;51.488;6.668;2022-07-22T06:36:52;1.73;;;1.20;;
22070;SDS011;11200;51.488;6.668;2022-07-22T06:39:18;1.60;;;1.20;;
22070;SDS011;11200;51.488;6.668;2022-07-22T06:41:43;2.25;;;1.20;;
22070;SDS011;11200;51.488;6.668;2022-07-22T06:44:09;1.52;;;1.20;;
22070;SDS011;11200;51.488;6.668;2022-07-22T06:46:34;1.63;;;1.30;;
22070;SDS011;11200;51.488;6.668;2022-07-22T06:49:00;2.50;;;1.13;;
22070;SDS011;11200;51.488;6.668;2022-07-22T06:51:26;3.83;;;1.45;;
22070;SDS011;11200;51.488;6.668;2022-07-22T06:53:52;2.85;;;1.50;;
22070;SDS011;11200;51.488;6.668;2022-07-22T06:56:18;3.47;;;1.40;;
22070;SDS011;11200;51.488;6.668;2022-07-22T06:58:43;2.30;;;1.30;;
22070;SDS011;11200;51.488;6.668;2022-07-22T07:01:09;3.28;;;1.17;;
22070;SDS011;11200;51.488;6.668;2022-07-22T07:03:34;1.75;;;1.20;;
22070;SDS011;11200;51.488;6.668;2022-07-22T07:06:00;2.00;;;1.23;;
22070;SDS011;11200;51.488;6.668;2022-07-22T07:08:27;2.97;;;1.20;;
22070;SDS011;11200;51.488;6.668;2022-07-22T07:10:52;2.40;;;1.30;;
22070;SDS011;11200;51.488;6.668;2022-07-22T07:13:18;2.30;;;1.30;;
22070;SDS011;11200;51.488;6.668;2022-07-22T07:15:44;1.52;;;1.20;;
22070;SDS011;11200;51.488;6.668;2022-07-22T07:18:09;1.63;;;1.10;;
22070;SDS011;11200;51.488;6.668;2022-07-22T07:20:35;2.05;;;1.40;;
22070;SDS011;11200;51.488;6.668;2022-07-22T07:23:00;2.97;;;1.52;;
22070;SDS011;11200;51.488;6.668;2022-07-22T07:25:27;2.53;;;1.40;;
22070;SDS011;11200;51.488;6.668;2022-07-22T07:27:52;2.35;;;1.40;;
22070;SDS011;11200;51.488;6.668;2022-07-22T07:30:18;1.75;;;1.10;;
22070;SDS011;11200;51.488;6.668;2022-07-22T07:32:44;1.63;;;1.30;;
22070;SDS011;11200;51.488;6.668;2022-07-22T07:35:09;3.08;;;1.30;;
22070;SDS011;11200;51.488;6.668;2022-07-22T07:37:35;3.20;;;1.30;;
22070;SDS011;11200;51.488;6.668;2022-07-22T07:40:01;2.00;;;1.30;;
22070;SDS011;11200;51.488;6.668;2022-07-22T07:42:27;1.92;;;1.30;;
22070;SDS011;11200;51.488;6.668;2022-07-22T07:44:53;1.52;;;1.33;;
22070;SDS011;11200;51.488;6.668;2022-07-22T07:47:18;2.28;;;1.30;;
22070;SDS011;11200;51.488;6.668;2022-07-22T07:49:45;2.08;;;1.30;;
22070;SDS011;11200;51.488;6.668;2022-07-22T07:52:12;2.38;;;1.30;;
22070;SDS011;11200;51.488;6.668;2022-07-22T07:54:38;1.65;;;1.38;;
22070;SDS011;11200;51.488;6.668;2022-07-22T07:57:05;2.03;;;1.25;;
22070;SDS011;11200;51.488;6.668;2022-07-22T07:59:31;1.70;;;1.40;;
22070;SDS011;11200;51.488;6.668;2022-07-22T08:01:57;2.00;;;1.42;;
22070;SDS011;11200;51.488;6.668;2022-07-22T08:04:22;2.53;;;1.40;;
22070;SDS011;11200;51.488;6.668;2022-07-22T08:06:48;2.10;;;1.38;;
22070;SDS011;11200;51.488;6.668;2022-07-22T08:09:14;1.92;;;1.50;;
22070;SDS011;11200;51.488;6.668;2022-07-22T08:11:39;1.77;;;1.40;;
22070;SDS011;11200;51.488;6.668;2022-07-22T08:14:05;2.10;;;1.50;;
22070;SDS011;11200;51.488;6.668;2022-07-22T08:16:30;3.60;;;1.70;;
22070;SDS011;11200;51.488;6.668;2022-07-22T08:18:56;1.52;;;1.30;;
22070;SDS011;11200;51.488;6.668;2022-07-22T08:21:21;2.78;;;1.55;;
22070;SDS011;11200;51.488;6.668;2022-07-22T08:23:47;2.90;;;1.70;;
22070;SDS011;11200;51.488;6.668;2022-07-22T08:26:13;3.00;;;1.50;;
22070;SDS011;11200;51.488;6.668;2022-07-22T08:28:39;2.25;;;1.58;;
22070;SDS011;11200;51.488;6.668;2022-07-22T08:31:04;1.85;;;1.50;;
22070;SDS011;11200;51.488;6.668;2022-07-22T08:33:30;2.10;;;1.38;;
22070;SDS011;11200;51.488;6.668;2022-07-22T08:35:56;1.98;;;1.50;;
22070;SDS011;11200;51.488;6.668;2022-07-22T08:38:21;2.15;;;1.50;;
22070;SDS011;11200;51.488;6.668;2022-07-22T08:40:47;3.88;;;1.70;;
22070;SDS011;11200;51.488;6.668;2022-07-22T08:43:13;2.38;;;1.50;;
22070;SDS011;11200;51.488;6.668;2022-07-22T08:45:39;3.17;;;1.80;;
22070;SDS011;11200;51.488;6.668;2022-07-22T08:48:06;1.98;;;1.40;;
22070;SDS011;11200;51.488;6.668;2022-07-22T08:50:31;2.35;;;1.65;;
22070;SDS011;11200;51.488;6.668;2022-07-22T08:52:57;3.25;;;1.80;;
22070;SDS011;11200;51.488;6.668;2022-07-22T08:55:23;2.55;;;1.75;;
22070;SDS011;11200;51.488;6.668;2022-07-22T08:57:49;3.28;;;1.80;;
22070;SDS011;11200;51.488;6.668;2022-07-22T09:00:16;2.70;;;1.83;;
22070;SDS011;11200;51.488;6.668;2022-07-22T09:02:44;2.08;;;1.70;;
22070;SDS011;11200;51.488;6.668;2022-07-22T09:05:10;2.78;;;1.90;;
22070;SDS011;11200;51.488;6.668;2022-07-22T09:07:39;2.45;;;1.70;;
22070;SDS011;11200;51.488;6.668;2022-07-22T09:10:08;4.00;;;1.90;;
22070;SDS011;11200;51.488;6.668;2022-07-22T09:12:57;2.60;;;1.67;;
22070;SDS011;11200;51.488;6.668;2022-07-22T09:15:25;1.95;;;1.60;;
22070;SDS011;11200;51.488;6.668;2022-07-22T09:17:55;2.92;;;1.80;;
22070;SDS011;11200;51.488;6.668;2022-07-22T09:20:21;2.28;;;1.92;;
22070;SDS011;11200;51.488;6.668;2022-07-22T09:22:48;4.05;;;2.08;;
22070;SDS011;11200;51.488;6.668;2022-07-22T09:27:43;2.45;;;2.03;;
22070;SDS011;11200;51.488;6.668;2022-07-22T09:30:11;3.03;;;2.05;;
22070;SDS011;11200;51.488;6.668;2022-07-22T09:32:42;3.05;;;1.80;;
22070;SDS011;11200;51.488;6.668;2022-07-22T09:35:09;3.40;;;2.05;;
22070;SDS011;11200;51.488;6.668;2022-07-22T09:40:19;2.95;;;1.90;;
22070;SDS011;11200;51.488;6.668;2022-07-22T09:42:57;4.45;;;2.20;;
22070;SDS011;11200;51.488;6.668;2022-07-22T09:45:25;3.83;;;2.00;;
22070;SDS011;11200;51.488;6.668;2022-07-22T09:47:53;2.80;;;1.75;;
22070;SDS011;11200;51.488;6.668;2022-07-22T09:52:51;1.98;;;1.70;;
22070;SDS011;11200;51.488;6.668;2022-07-22T09:55:19;2.85;;;1.88;;
22070;SDS011;11200;51.488;6.668;2022-07-22T09:57:46;2.85;;;2.00;;
22070;SDS011;11200;51.488;6.668;2022-07-22T10:00:14;2.35;;;1.85;;
22070;SDS011;11200;51.488;6.668;2022-07-22T10:03:00;3.25;;;2.03;;
22070;SDS011;11200;51.488;6.668;2022-07-22T10:05:31;4.60;;;2.10;;
22070;SDS011;11200;51.488;6.668;2022-07-22T10:08:00;2.00;;;1.80;;
22070;SDS011;11200;51.488;6.668;2022-07-22T10:10:27;2.75;;;1.98;;
22070;SDS011;11200;51.488;6.668;2022-07-22T10:12:55;2.42;;;2.10;;
22070;SDS011;11200;51.488;6.668;2022-07-22T10:15:23;2.72;;;2.10;;
22070;SDS011;11200;51.488;6.668;2022-07-22T10:17:57;2.30;;;1.90;;
22070;SDS011;11200;51.488;6.668;2022-07-22T10:20:25;2.85;;;2.17;;
22070;SDS011;11200;51.488;6.668;2022-07-22T10:23:02;3.10;;;1.80;;
22070;SDS011;11200;51.488;6.668;2022-07-22T10:25:30;2.03;;;1.80;;
22070;SDS011;11200;51.488;6.668;2022-07-22T10:28:02;3.35;;;2.05;;
22070;SDS011;11200;51.488;6.668;2022-07-22T10:33:06;2.75;;;1.90;;
22070;SDS011;11200;51.488;6.668;2022-07-22T10:38:09;2.45;;;2.00;;
22070;SDS011;11200;51.488;6.668;2022-07-22T10:43:55;3.47;;;1.90;;
22070;SDS011;11200;51.488;6.668;2022-07-22T10:46:20;3.30;;;2.00;;
22070;SDS011;11200;51.488;6.668;2022-07-22T10:49:14;2.90;;;2.17;;
22070;SDS011;11200;51.488;6.668;2022-07-22T10:52:00;2.92;;;2.20;;
22070;SDS011;11200;51.488;6.668;2022-07-22T10:57:45;3.25;;;2.22;;
22070;SDS011;11200;51.488;6.668;2022-07-22T11:00:13;3.92;;;2.10;;
22070;SDS011;11200;51.488;6.668;2022-07-22T11:02:39;2.85;;;2.20;;
22070;SDS011;11200;51.488;6.668;2022-07-22T11:05:06;3.22;;;2.42;;
22070;SDS011;11200;51.488;6.668;2022-07-22T11:07:34;3.28;;;2.20;;
22070;SDS011;11200;51.488;6.668;2022-07-22T11:10:17;4.30;;;2.20;;
22070;SDS011;11200;51.488;6.668;2022-07-22T11:12:45;3.28;;;2.30;;
22070;SDS011;11200;51.488;6.668;2022-07-22T11:15:13;4.65;;;2.50;;
22070;SDS011;11200;51.488;6.668;2022-07-22T11:17:39;3.75;;;2.40;;
22070;SDS011;11200;51.488;6.668;2022-07-22T11:20:06;3.63;;;2.50;;
22070;SDS011;11200;51.488;6.668;2022-07-22T11:22:33;3.15;;;2.15;;
22070;SDS011;11200;51.488;6.668;2022-07-22T11:25:00;2.90;;;2.08;;
22070;SDS011;11200;51.488;6.668;2022-07-22T11:27:27;3.13;;;2.28;;
22070;SDS011;11200;51.488;6.668;2022-07-22T11:29:53;2.72;;;2.10;;
22070;SDS011;11200;51.488;6.668;2022-07-22T11:32:24;3.33;;;2.30;;
22070;SDS011;11200;51.488;6.668;2022-07-22T11:34:50;2.90;;;2.60;;
22070;SDS011;11200;51.488;6.668;2022-07-22T11:37:17;3.63;;;2.30;;
22070;SDS011;11200;51.488;6.668;2022-07-22T11:39:44;2.67;;;2.40;;
22070;SDS011;11200;51.488;6.668;2022-07-22T11:42:11;3.13;;;2.40;;
22070;SDS011;11200;51.488;6.668;2022-07-22T11:44:38;2.92;;;2.30;;
22070;SDS011;11200;51.488;6.668;2022-07-22T11:47:05;3.00;;;2.50;;
22070;SDS011;11200;51.488;6.668;2022-07-22T11:49:33;2.50;;;2.30;;
22070;SDS011;11200;51.488;6.668;2022-07-22T11:52:00;2.70;;;2.40;;
22070;SDS011;11200;51.488;6.668;2022-07-22T11:54:27;3.33;;;2.28;;
22070;SDS011;11200;51.488;6.668;2022-07-22T11:56:53;3.92;;;2.58;;
22070;SDS011;11200;51.488;6.668;2022-07-22T11:59:19;2.85;;;2.40;;
22070;SDS011;11200;51.488;6.668;2022-07-22T12:01:46;3.47;;;2.60;;
22070;SDS011;11200;51.488;6.668;2022-07-22T12:04:14;2.80;;;2.30;;
22070;SDS011;11200;51.488;6.668;2022-07-22T12:06:44;3.20;;;2.10;;
22070;SDS011;11200;51.488;6.668;2022-07-22T12:11:38;3.25;;;2.30;;
22070;SDS011;11200;51.488;6.668;2022-07-22T12:16:36;2.80;;;2.20;;
22070;SDS011;11200;51.488;6.668;2022-07-22T12:19:06;3.17;;;2.30;;
22070;SDS011;11200;51.488;6.668;2022-07-22T12:21:35;3.08;;;2.10;;
22070;SDS011;11200;51.488;6.668;2022-07-22T12:34:38;2.78;;;2.15;;
22070;SDS011;11200;51.488;6.668;2022-07-22T12:39:38;2.33;;;1.90;;
22070;SDS011;11200;51.488;6.668;2022-07-22T12:42:14;3.05;;;2.20;;
22070;SDS011;11200;51.488;6.668;2022-07-22T12:44:49;3.08;;;2.15;;
22070;SDS011;11200;51.488;6.668;2022-07-22T12:47:17;2.15;;;1.88;;
22070;SDS011;11200;51.488;6.668;2022-07-22T12:50:15;2.55;;;2.00;;
22070;SDS011;11200;51.488;6.668;2022-07-22T12:52:45;2.03;;;1.90;;
22070;SDS011;11200;51.488;6.668;2022-07-22T12:55:11;2.53;;;1.98;;
22070;SDS011;11200;51.488;6.668;2022-07-22T12:57:37;2.95;;;1.98;;
22070;SDS011;11200;51.488;6.668;2022-07-22T13:00:03;3.17;;;2.08;;
22070;SDS011;11200;51.488;6.668;2022-07-22T13:02:29;2.33;;;1.80;;
22070;SDS011;11200;51.488;6.668;2022-07-22T13:04:55;2.75;;;2.05;;
22070;SDS011;11200;51.488;6.668;2022-07-22T13:07:20;1.90;;;1.80;;
22070;SDS011;11200;51.488;6.668;2022-07-22T13:09:46;2.22;;;1.90;;
22070;SDS011;11200;51.488;6.668;2022-07-22T13:12:11;2.88;;;1.85;;
22070;SDS011;11200;51.488;6.668;2022-07-22T13:14:37;3.22;;;2.30;;
22070;SDS011;11200;51.488;6.668;2022-07-22T13:17:03;1.80;;;1.70;;
22070;SDS011;11200;51.488;6.668;2022-07-22T13:19:28;2.35;;;1.98;;
22070;SDS011;11200;51.488;6.668;2022-07-22T13:21:54;2.35;;;1.90;;
22070;SDS011;11200;51.488;6.668;2022-07-22T13:24:20;2.10;;;1.90;;
22070;SDS011;11200;51.488;6.668;2022-07-22T13:26:45;2.60;;;2.00;;
22070;SDS011;11200;51.488;6.668;2022-07-22T13:29:11;2.92;;;2.17;;
22070;SDS011;11200;51.488;6.668;2022-07-22T13:31:37;2.33;;;2.13;;
22070;SDS011;11200;51.488;6.668;2022-07-22T13:34:02;2.10;;;1.90;;
22070;SDS011;11200;51.488;6.668;2022-07-22T13:36:28;3.30;;;2.03;;
22070;SDS011;11200;51.488;6.668;2022-07-22T13:38:57;3.40;;;2.38;;
22070;SDS011;11200;51.488;6.668;2022-07-22T13:41:23;2.58;;;2.00;;
22070;SDS011;11200;51.488;6.668;2022-07-22T13:43:48;2.15;;;1.80;;
22070;SDS011;11200;51.488;6.668;2022-07-22T13:46:16;2.13;;;1.90;;
22070;SDS011;11200;51.488;6.668;2022-07-22T13:48:42;2.13;;;1.88;;
22070;SDS011;11200;51.488;6.668;2022-07-22T13:51:08;2.35;;;1.98;;
22070;SDS011;11200;51.488;6.668;2022-07-22T13:53:34;2.13;;;1.65;;
22070;SDS011;11200;51.488;6.668;2022-07-22T13:56:00;2.85;;;2.05;;
22070;SDS011;11200;51.488;6.668;2022-07-22T13:58:27;2.40;;;2.00;;
22070;SDS011;11200;51.488;6.668;2022-07-22T14:00:52;2.17;;;1.98;;
22070;SDS011;11200;51.488;6.668;2022-07-22T14:03:18;2.13;;;1.80;;
22070;SDS011;11200;51.488;6.668;2022-07-22T14:05:44;2.83;;;2.00;;
22070;SDS011;11200;51.488;6.668;2022-07-22T14:08:10;2.63;;;2.33;;
22070;SDS011;11200;51.488;6.668;2022-07-22T14:10:35;2.20;;;1.70;;
22070;SDS011;11200;51.488;6.668;2022-07-22T14:13:01;2.72;;;2.05;;
22070;SDS011;11200;51.488;6.668;2022-07-22T14:15:27;2.50;;;1.90;;
22070;SDS011;11200;51.488;6.668;2022-07-22T14:17:52;2.10;;;1.90;;
22070;SDS011;11200;51.488;6.668;2022-07-22T14:20:18;2.58;;;1.80;;
22070;SDS011;11200;51.488;6.668;2022-07-22T14:22:43;2.15;;;1.95;;
22070;SDS011;11200;51.488;6.668;2022-07-22T14:25:09;2.00;;;1.80;;
22070;SDS011;11200;51.488;6.668;2022-07-22T14:27:35;2.00;;;1.80;;
22070;SDS011;11200;51.488;6.668;2022-07-22T14:30:00;3.38;;;2.15;;
22070;SDS011;11200;51.488;6.668;2022-07-22T14:32:26;3.15;;;2.33;;
22070;SDS011;11200;51.488;6.668;2022-07-22T14:34:52;3.22;;;2.20;;
22070;SDS011;11200;51.488;6.668;2022-07-22T14:37:17;2.30;;;1.80;;
22070;SDS011;11200;51.488;6.668;2022-07-22T14:39:43;1.80;;;1.70;;
22070;SDS011;11200;51.488;6.668;2022-07-22T14:42:09;3.45;;;2.03;;
22070;SDS011;11200;51.488;6.668;2022-07-22T14:44:34;2.70;;;2.05;;
22070;SDS011;11200;51.488;6.668;2022-07-22T14:47:00;2.10;;;1.90;;
22070;SDS011;11200;51.488;6.668;2022-07-22T14:49:27;2.95;;;2.17;;
22070;SDS011;11200;51.488;6.668;2022-07-22T14:51:52;2.88;;;1.90;;
22070;SDS011;11200;51.488;6.668;2022-07-22T14:54:18;3.05;;;2.10;;
22070;SDS011;11200;51.488;6.668;2022-07-22T14:56:44;3.42;;;2.20;;
22070;SDS011;11200;51.488;6.668;2022-07-22T14:59:10;2.15;;;1.90;;
22070;SDS011;11200;51.488;6.668;2022-07-22T15:01:35;2.47;;;1.90;;
22070;SDS011;11200;51.488;6.668;2022-07-22T15:04:01;2.50;;;2.03;;
22070;SDS011;11200;51.488;6.668;2022-07-22T15:06:27;2.92;;;2.00;;
22070;SDS011;11200;51.488;6.668;2022-07-22T15:08:52;3.50;;;1.90;;
22070;SDS011;11200;51.488;6.668;2022-07-22T15:11:18;3.13;;;2.00;;
22070;SDS011;11200;51.488;6.668;2022-07-22T15:13:44;2.20;;;1.75;;
22070;SDS011;11200;51.488;6.668;2022-07-22T15:16:09;2.58;;;2.00;;
22070;SDS011;11200;51.488;6.668;2022-07-22T15:18:35;2.28;;;1.98;;
22070;SDS011;11200;51.488;6.668;2022-07-22T15:21:01;2.55;;;2.10;;